Gure Amuitz — EASO — position and weather

sailwx.info

Track history (hours):
 
Tides and Currents Weather Stations Pressure Air Temp Water Temp Dewpoint Dewpoint Depression Visibility Wind Speed Wind Dir Waves Ship Positions

Gure Amuitz

Last reported at 2014-Sep-30 11:33 UTC. Time now 2014-Sep-30 11:57 UTC.
Position N 43°50' W 001°44'.

Length 28 m.

Type: Fishing. MMSI: 224010590.

Date/timePositionNaut miles runAvg speedWind from/ knotsBaromVisibWave heightAir tempDewpointWater temp
2014-Sep-30 11:33N 43°50' W 001°44'28 6.8
2014-Sep-30 07:30N 44°17' W 001°36'1 0.6
2014-Sep-30 06:33N 44°18' W 001°36'2 1.9
2014-Sep-30 05:16N 44°20' W 001°34'0 0.3
2014-Sep-30 04:33N 44°20' W 001°34'3 2.6
2014-Sep-30 03:32N 44°22' W 001°33'1 1.3
2014-Sep-30 02:29N 44°23' W 001°32'46 4.2
2014-Sep-29 15:33N 43°38' W 001°42'9 8.8
2014-Sep-29 14:28N 43°29' W 001°45'6 6.5
2014-Sep-29 13:33N 43°23' W 001°47'0 0.0
2014-Sep-29 08:10N 43°23' W 001°47'0 0.0
2014-Sep-29 07:33N 43°23' W 001°47'  
2014-Sep-26 13:33N 43°23' W 001°47'0 0.1
2014-Sep-26 12:33N 43°23' W 001°47'0 0.0
2014-Sep-26 11:22N 43°23' W 001°47'7 8.5
2014-Sep-26 10:31N 43°30' W 001°46'2010.1
2014-Sep-26 08:33N 43°50' W 001°42'1110.2
2014-Sep-26 07:30N 44°00' W 001°39'1310.1
2014-Sep-26 06:12N 44°14' W 001°36'5 4.5
2014-Sep-26 05:08N 44°18' W 001°33'0 0.2
2014-Sep-26 04:33N 44°18' W 001°33'0 0.1
2014-Sep-26 03:33N 44°18' W 001°33'1 1.0
2014-Sep-26 02:22N 44°19' W 001°32'6 2.7
2014-Sep-26 00:10N 44°25' W 001°32'0 0.5
2014-Sep-25 23:28N 44°25' W 001°31'3 2.7
2014-Sep-25 22:21N 44°22' W 001°32'7 7.9
2014-Sep-25 21:27N 44°15' W 001°34'8 8.4
2014-Sep-25 20:28N 44°07' W 001°35'8 8.3
2014-Sep-25 19:33N 43°59' W 001°37'25 8.1
2014-Sep-25 16:30N 43°35' W 001°43'8 8.6
2014-Sep-25 15:31N 43°27' W 001°46'4 4.0
2014-Sep-25 14:33N 43°23' W 001°47'0 0.0
2014-Sep-25 13:33N 43°23' W 001°47'6 5.6
2014-Sep-25 12:30N 43°29' W 001°45'28 9.4
2014-Sep-25 09:28N 43°57' W 001°39'26 4.2
2014-Sep-25 03:25N 44°22' W 001°32'45 3.8
2014-Sep-24 15:33N 43°37' W 001°42'7 6.6
2014-Sep-24 14:30N 43°31' W 001°44'7 7.0
2014-Sep-24 13:33N 43°24' W 001°47'1 1.3
2014-Sep-24 12:33N 43°23' W 001°48'0 0.0
2014-Sep-24 11:33N 43°23' W 001°47'11 8.6
2014-Sep-24 10:18N 43°34' W 001°45'1 0.1
2014-Sep-23 17:23N 43°34' W 001°43'9 9.7
2014-Sep-23 16:26N 43°25' W 001°46'2 0.7
2014-Sep-23 13:10N 43°23' W 001°47'0 0.0
2014-Sep-23 12:33N 43°23' W 001°47'0 0.0
2014-Sep-23 11:33N 43°23' W 001°47'0 0.0
2014-Sep-23 10:33N 43°23' W 001°47'0 0.0
2014-Sep-23 09:31N 43°23' W 001°47'0 0.0
2014-Sep-23 08:33N 43°23' W 001°47'0 0.0
2014-Sep-23 07:33N 43°23' W 001°47'0 0.0
2014-Sep-23 06:33N 43°23' W 001°47'0 0.0
2014-Sep-23 05:33N 43°23' W 001°47'0 0.0
2014-Sep-23 04:31N 43°23' W 001°47'0 0.0
2014-Sep-23 03:27N 43°23' W 001°48'0 0.0
2014-Sep-23 02:33N 43°23' W 001°48'0 0.0
2014-Sep-23 01:30N 43°23' W 001°48'0 0.0
2014-Sep-23 00:31N 43°23' W 001°48'0 0.0
2014-Sep-22 23:33N 43°23' W 001°48'0 0.0
2014-Sep-22 22:33N 43°23' W 001°48'0 0.0
2014-Sep-22 21:33N 43°23' W 001°48'0 0.0
2014-Sep-22 20:33N 43°23' W 001°48'0 0.0
2014-Sep-22 19:33N 43°23' W 001°48'0 0.0
2014-Sep-22 18:33N 43°23' W 001°48'0 0.0
2014-Sep-22 17:33N 43°23' W 001°48'0 0.0
2014-Sep-22 16:33N 43°23' W 001°48'0 0.0
2014-Sep-22 15:33N 43°23' W 001°48'0 0.0
2014-Sep-22 14:33N 43°23' W 001°48'0 0.0
2014-Sep-22 13:33N 43°23' W 001°48'0 0.0
2014-Sep-22 12:33N 43°23' W 001°48'0 0.0
2014-Sep-22 11:33N 43°23' W 001°48'0 0.0
2014-Sep-22 10:33N 43°23' W 001°48'0 0.0
2014-Sep-22 09:33N 43°23' W 001°48'0 0.0
2014-Sep-22 08:33N 43°23' W 001°48'  
Track history (hours):
 
Tides and Currents Weather Stations Pressure Air Temp Water Temp Dewpoint Dewpoint Depression Visibility Wind Speed Wind Dir Waves Ship Positions

Gure Amuitz

Last reported at 2014-Sep-30 11:33 UTC. Time now 2014-Sep-30 11:57 UTC.
Position N 43°50' W 001°44'.

Length 28 m.

Type: Fishing. MMSI: 224010590.

Date/timePositionNaut miles runAvg speedWind from/ knotsBaromVisibWave heightAir tempDewpointWater temp
2014-Sep-30 11:33N 43°50' W 001°44'28 6.8
2014-Sep-30 07:30N 44°17' W 001°36'1 0.6
2014-Sep-30 06:33N 44°18' W 001°36'2 1.9
2014-Sep-30 05:16N 44°20' W 001°34'0 0.3
2014-Sep-30 04:33N 44°20' W 001°34'3 2.6
2014-Sep-30 03:32N 44°22' W 001°33'1 1.3
2014-Sep-30 02:29N 44°23' W 001°32'46 4.2
2014-Sep-29 15:33N 43°38' W 001°42'9 8.8
2014-Sep-29 14:28N 43°29' W 001°45'6 6.5
2014-Sep-29 13:33N 43°23' W 001°47'0 0.0
2014-Sep-29 08:10N 43°23' W 001°47'0 0.0
2014-Sep-29 07:33N 43°23' W 001°47'  
2014-Sep-26 13:33N 43°23' W 001°47'0 0.1
2014-Sep-26 12:33N 43°23' W 001°47'0 0.0
2014-Sep-26 11:22N 43°23' W 001°47'7 8.5
2014-Sep-26 10:31N 43°30' W 001°46'2010.1
2014-Sep-26 08:33N 43°50' W 001°42'1110.2
2014-Sep-26 07:30N 44°00' W 001°39'1310.1
2014-Sep-26 06:12N 44°14' W 001°36'5 4.5
2014-Sep-26 05:08N 44°18' W 001°33'0 0.2
2014-Sep-26 04:33N 44°18' W 001°33'0 0.1
2014-Sep-26 03:33N 44°18' W 001°33'1 1.0
2014-Sep-26 02:22N 44°19' W 001°32'6 2.7
2014-Sep-26 00:10N 44°25' W 001°32'0 0.5
2014-Sep-25 23:28N 44°25' W 001°31'3 2.7
2014-Sep-25 22:21N 44°22' W 001°32'7 7.9
2014-Sep-25 21:27N 44°15' W 001°34'8 8.4
2014-Sep-25 20:28N 44°07' W 001°35'8 8.3
2014-Sep-25 19:33N 43°59' W 001°37'25 8.1
2014-Sep-25 16:30N 43°35' W 001°43'8 8.6
2014-Sep-25 15:31N 43°27' W 001°46'4 4.0
2014-Sep-25 14:33N 43°23' W 001°47'0 0.0
2014-Sep-25 13:33N 43°23' W 001°47'6 5.6
2014-Sep-25 12:30N 43°29' W 001°45'28 9.4
2014-Sep-25 09:28N 43°57' W 001°39'26 4.2
2014-Sep-25 03:25N 44°22' W 001°32'45 3.8
2014-Sep-24 15:33N 43°37' W 001°42'7 6.6
2014-Sep-24 14:30N 43°31' W 001°44'7 7.0
2014-Sep-24 13:33N 43°24' W 001°47'1 1.3
2014-Sep-24 12:33N 43°23' W 001°48'0 0.0
2014-Sep-24 11:33N 43°23' W 001°47'11 8.6
2014-Sep-24 10:18N 43°34' W 001°45'1 0.1
2014-Sep-23 17:23N 43°34' W 001°43'9 9.7
2014-Sep-23 16:26N 43°25' W 001°46'2 0.7
2014-Sep-23 13:10N 43°23' W 001°47'0 0.0
2014-Sep-23 12:33N 43°23' W 001°47'0 0.0
2014-Sep-23 11:33N 43°23' W 001°47'0 0.0
2014-Sep-23 10:33N 43°23' W 001°47'0 0.0
2014-Sep-23 09:31N 43°23' W 001°47'0 0.0
2014-Sep-23 08:33N 43°23' W 001°47'0 0.0
2014-Sep-23 07:33N 43°23' W 001°47'0 0.0
2014-Sep-23 06:33N 43°23' W 001°47'0 0.0
2014-Sep-23 05:33N 43°23' W 001°47'0 0.0
2014-Sep-23 04:31N 43°23' W 001°47'0 0.0
2014-Sep-23 03:27N 43°23' W 001°48'0 0.0
2014-Sep-23 02:33N 43°23' W 001°48'0 0.0
2014-Sep-23 01:30N 43°23' W 001°48'0 0.0
2014-Sep-23 00:31N 43°23' W 001°48'0 0.0
2014-Sep-22 23:33N 43°23' W 001°48'0 0.0
2014-Sep-22 22:33N 43°23' W 001°48'0 0.0
2014-Sep-22 21:33N 43°23' W 001°48'0 0.0
2014-Sep-22 20:33N 43°23' W 001°48'0 0.0
2014-Sep-22 19:33N 43°23' W 001°48'0 0.0
2014-Sep-22 18:33N 43°23' W 001°48'0 0.0
2014-Sep-22 17:33N 43°23' W 001°48'0 0.0
2014-Sep-22 16:33N 43°23' W 001°48'0 0.0
2014-Sep-22 15:33N 43°23' W 001°48'0 0.0
2014-Sep-22 14:33N 43°23' W 001°48'0 0.0
2014-Sep-22 13:33N 43°23' W 001°48'0 0.0
2014-Sep-22 12:33N 43°23' W 001°48'0 0.0
2014-Sep-22 11:33N 43°23' W 001°48'0 0.0
2014-Sep-22 10:33N 43°23' W 001°48'0 0.0
2014-Sep-22 09:33N 43°23' W 001°48'0 0.0
2014-Sep-22 08:33N 43°23' W 001°48'  

Dump ship's entire track history